Time;durP1;ratioP1;P1;durP2;ratioP2;P2;SDS_P1;SDS_P2;PMS_P1;PMS_P2;Temp;Humidity;BMP_temperature;BMP_pressure;BME280_temperature;BME280_humidity;BME280_pressure;Samples;Min_cycle;Max_cycle;Signal;HPM_P1;HPM_P2
2023/08/31 00:02:20;;;;;;;3.15;2.85;;;;;;;15.20;85.88;152506.13;10583308;28;20524;-75
2023/08/31 00:07:22;;;;;;;2.75;2.55;;;;;;;15.24;85.21;152517.78;10582837;28;20040;-74
2023/08/31 00:12:24;;;;;;;2.67;2.47;;;;;;;15.58;80.45;152604.59;10582655;28;20123;-73
2023/08/31 00:17:25;;;;;;;2.25;2.05;;;;;;;15.71;79.36;152637.00;10564609;28;20044;-74
2023/08/31 00:22:28;;;;;;;2.00;1.80;;;;;;;16.12;75.21;152740.75;10582843;28;20042;-75
2023/08/31 00:27:30;;;;;;;2.78;2.08;;;;;;;16.04;76.96;152720.00;10581729;28;20131;-74
2023/08/31 00:32:33;;;;;;;2.03;1.83;;;;;;;15.98;76.51;152705.75;10583106;28;20047;-74
2023/08/31 00:37:35;;;;;;;2.03;1.83;;;;;;;15.69;78.32;152630.56;10582414;28;20082;-74
2023/08/31 00:42:37;;;;;;;2.13;1.60;;;;;;;15.63;77.85;152617.56;10583239;28;20043;-73
2023/08/31 00:47:39;;;;;;;1.60;1.50;;;;;;;15.55;78.48;152596.81;10582932;28;20509;-75
2023/08/31 00:52:44;;;;;;;2.00;1.70;;;;;;;15.55;78.55;152596.81;10582477;28;20073;-73
2023/08/31 00:57:45;;;;;;;2.22;1.67;;;;;;;15.26;80.88;152522.94;10547090;28;20055;-74
2023/08/31 01:03:12;;;;;;;1.67;1.50;;;;;;;14.94;84.35;152441.34;10563783;28;20047;-74
2023/08/31 01:08:24;;;;;;;1.63;1.42;;;;;;;14.77;84.29;152397.28;10582027;28;20124;-74
2023/08/31 01:13:30;;;;;;;1.75;1.30;;;;;;;14.53;85.51;152336.44;10563423;28;20048;-74
2023/08/31 01:18:35;;;;;;;;;;;;;;;14.54;85.48;152340.31;10582482;28;20491;-74
2023/08/31 01:23:54;;;;;;;1.20;1.10;;;;;;;14.63;84.38;152363.63;10563011;28;19920;-72
2023/08/31 01:28:56;;;;;;;1.83;1.55;;;;;;;14.67;86.65;152371.41;10580498;28;20447;-73
2023/08/31 01:33:58;;;;;;;1.38;1.27;;;;;;;14.65;86.86;152367.50;10562472;28;20142;-73
2023/08/31 01:39:10;;;;;;;1.20;1.10;;;;;;;14.86;82.40;152420.59;10568455;28;20047;-73
2023/08/31 01:44:16;;;;;;;0.68;0.63;;;;;;;14.87;80.96;152423.19;10570448;28;20421;-73
2023/08/31 01:49:19;;;;;;;0.40;0.40;;;;;;;15.04;77.51;152465.94;10571108;28;20069;-73
2023/08/31 01:54:21;;;;;;;1.33;0.70;;;;;;;15.13;78.88;152489.25;10588899;28;20515;-73
2023/08/31 01:59:23;;;;;;;0.55;0.52;;;;;;;15.18;77.70;152502.19;10570948;28;20055;-73
2023/08/31 02:04:25;;;;;;;0.73;0.60;;;;;;;15.26;77.57;152522.94;10569588;28;20651;-73
2023/08/31 02:09:27;;;;;;;0.95;0.80;;;;;;;14.95;80.91;152442.63;10587771;28;20084;-73
2023/08/31 02:14:30;;;;;;;0.80;0.68;;;;;;;15.13;79.78;152489.25;10587210;28;20071;-74
2023/08/31 02:19:31;;;;;;;1.02;0.60;;;;;;;14.86;82.84;152421.88;10587253;28;20106;-74
2023/08/31 02:24:33;;;;;;;0.98;0.70;;;;;;;15.06;81.02;152471.16;10568637;28;20051;-73
2023/08/31 02:29:35;;;;;;;0.70;0.70;;;;;;;14.97;83.36;152449.13;10568564;28;20588;-73
2023/08/31 02:34:39;;;;;;;0.70;0.70;;;;;;;15.01;82.61;152458.19;10587171;28;20070;-73
2023/08/31 02:39:41;;;;;;;0.75;0.70;;;;;;;14.69;85.70;152376.56;10586332;28;20435;-73
2023/08/31 02:44:43;;;;;;;3.00;0.70;;;;;;;14.59;86.10;152351.97;10587364;28;20048;-73
2023/08/31 02:49:44;;;;;;;0.70;0.70;;;;;;;14.85;85.19;152418.03;10585747;28;20044;-73
2023/08/31 02:54:46;;;;;;;0.82;0.70;;;;;;;14.50;88.66;152328.66;10567832;28;20039;-73
2023/08/31 02:59:51;;;;;;;0.90;0.80;;;;;;;14.38;89.55;152300.09;10567745;28;20074;-73
2023/08/31 03:04:55;;;;;;;1.38;0.60;;;;;;;14.11;91.58;152231.50;10567678;28;20071;-73
2023/08/31 03:09:58;;;;;;;1.95;1.00;;;;;;;13.96;93.75;152192.69;10566935;28;20036;-72
2023/08/31 03:14:59;;;;;;;0.80;0.60;;;;;;;13.82;94.25;152157.75;10585851;28;20400;-73
2023/08/31 03:20:01;;;;;;;0.95;0.63;;;;;;;14.03;92.29;152209.47;10584966;28;20119;-73
2023/08/31 03:25:03;;;;;;;1.40;0.70;;;;;;;13.97;93.23;152195.25;10567226;28;20073;-75
2023/08/31 03:30:06;;;;;;;0.68;0.60;;;;;;;14.22;89.22;152257.41;10584388;28;20089;-73
2023/08/31 03:35:08;;;;;;;1.48;0.70;;;;;;;14.19;88.48;152250.91;10584300;28;20047;-72
2023/08/31 03:40:10;;;;;;;0.75;0.75;;;;;;;14.15;88.32;152240.56;10565668;28;20046;-74
2023/08/31 03:45:12;;;;;;;0.98;0.80;;;;;;;14.24;86.47;152263.88;10583418;28;20085;-73
2023/08/31 03:50:14;;;;;;;1.42;0.90;;;;;;;14.01;89.24;152205.63;10583430;28;20036;-72
2023/08/31 03:55:16;;;;;;;0.75;0.70;;;;;;;14.04;88.31;152212.09;10565492;28;20039;-73
2023/08/31 04:00:18;;;;;;;1.05;0.80;;;;;;;14.06;87.81;152218.56;10546991;28;20071;-73
2023/08/31 04:05:19;;;;;;;1.98;0.63;;;;;;;14.11;87.44;152231.50;10583438;28;20053;-73
2023/08/31 04:10:21;;;;;;;0.70;0.70;;;;;;;13.90;90.28;152177.16;10564157;28;20417;-73
2023/08/31 04:15:23;;;;;;;0.63;0.60;;;;;;;13.60;93.15;152100.78;10582662;28;20040;-73
2023/08/31 04:20:25;;;;;;;0.77;0.70;;;;;;;13.58;94.14;152095.59;10564352;28;20047;-74
2023/08/31 04:25:28;;;;;;;2.88;1.23;;;;;;;14.08;88.57;152223.75;10582782;28;20130;-73
2023/08/31 04:30:31;;;;;;;1.63;1.20;;;;;;;14.00;90.63;152201.75;10581781;28;20535;-73
2023/08/31 04:35:33;;;;;;;2.78;1.30;;;;;;;14.02;89.51;152208.19;10582590;28;20057;-74
2023/08/31 04:40:36;;;;;;;1.10;0.93;;;;;;;14.12;88.26;152234.13;10563420;28;20134;-73
2023/08/31 04:45:38;;;;;;;1.75;0.93;;;;;;;14.23;86.24;152260.00;10581393;28;20050;-74
2023/08/31 04:50:40;;;;;;;1.38;1.10;;;;;;;13.94;90.05;152187.47;10581637;28;20481;-73
2023/08/31 04:55:41;;;;;;;1.52;1.13;;;;;;;13.96;90.37;152191.38;10581415;28;20447;-74
2023/08/31 05:00:44;;;;;;;1.50;0.90;;;;;;;14.24;86.52;152262.56;10581917;28;20454;-74
2023/08/31 05:05:46;;;;;;;2.58;1.08;;;;;;;14.28;85.61;152274.22;10581110;28;20089;-74
2023/08/31 05:10:47;;;;;;;2.90;1.33;;;;;;;13.96;89.79;152192.69;10583398;28;20036;-73
2023/08/31 05:15:49;;;;;;;1.35;1.00;;;;;;;14.04;88.80;152212.09;10589544;28;20043;-74
2023/08/31 05:20:51;;;;;;;3.78;2.00;;;;;;;14.30;87.58;152279.44;10589632;28;20066;-73
2023/08/31 05:25:53;;;;;;;2.25;1.30;;;;;;;14.14;89.75;152239.28;10590548;28;20054;-77
2023/08/31 05:30:57;;;;;;;2.30;1.50;;;;;;;14.25;89.04;152266.44;10590969;28;20069;-77
2023/08/31 05:36:01;;;;;;;5.45;1.77;;;;;;;14.20;89.62;152252.22;10589987;28;20131;-77
2023/08/31 05:41:07;;;;;;;2.90;1.50;;;;;;;14.58;84.69;152349.38;10590716;28;20043;-76
2023/08/31 05:46:09;;;;;;;1.98;1.40;;;;;;;14.61;84.83;152358.47;10590011;28;20040;-77
2023/08/31 05:51:11;;;;;;;2.22;1.40;;;;;;;14.43;86.12;152311.75;10589879;28;20032;-77
2023/08/31 05:56:12;;;;;;;2.05;1.65;;;;;;;14.56;86.27;152345.47;10554333;28;20090;-77
2023/08/31 06:01:14;;;;;;;1.75;1.20;;;;;;;14.85;84.01;152419.31;10589632;28;20043;-77
2023/08/31 06:06:16;;;;;;;1.65;1.20;;;;;;;14.99;81.61;152454.28;10571251;28;20101;-77
2023/08/31 06:11:18;;;;;;;2.83;1.80;;;;;;;15.03;80.45;152464.66;10590072;28;20058;-77
2023/08/31 06:16:19;;;;;;;2.85;1.27;;;;;;;15.18;79.19;152500.91;10571625;28;20040;-77
2023/08/31 06:21:21;;;;;;;1.65;1.50;;;;;;;15.04;79.82;152465.94;10588262;28;20044;-77
2023/08/31 06:26:23;;;;;;;3.65;1.60;;;;;;;15.27;79.35;152525.56;10590086;28;20040;-77
2023/08/31 06:31:25;;;;;;;1.92;1.13;;;;;;;15.44;77.98;152568.28;10590724;28;20071;-77
2023/08/31 06:36:26;;;;;;;1.75;1.60;;;;;;;15.44;80.92;152567.00;10589766;28;20130;-78
2023/08/31 06:41:28;;;;;;;1.73;1.63;;;;;;;15.58;78.66;152604.59;10589955;28;20040;-77
2023/08/31 06:46:33;;;;;;;4.47;2.00;;;;;;;15.44;78.02;152568.28;10570939;28;20134;-78
2023/08/31 06:51:36;;;;;;;3.70;1.65;;;;;;;15.45;79.74;152569.56;10592514;28;20059;-79
2023/08/31 06:56:38;;;;;;;2.65;1.95;;;;;;;15.64;77.36;152618.91;10589828;28;20143;-77
2023/08/31 07:01:39;;;;;;;3.28;2.00;;;;;;;15.59;78.81;152607.19;10592564;28;20089;-79
2023/08/31 07:06:41;;;;;;;2.40;1.52;;;;;;;15.94;73.86;152694.03;10592252;28;20394;-79
2023/08/31 07:11:43;;;;;;;3.83;1.75;;;;;;;15.92;75.37;152690.16;10571644;28;20501;-78
2023/08/31 07:16:45;;;;;;;3.08;1.65;;;;;;;16.12;74.54;152742.03;10591520;28;20039;-78
2023/08/31 07:21:47;;;;;;;1.98;1.40;;;;;;;15.84;75.50;152669.41;10590879;28;20039;-79
2023/08/31 07:26:49;;;;;;;1.60;1.45;;;;;;;15.90;76.69;152685.00;10595093;28;20047;-78
2023/08/31 07:31:51;;;;;;;3.15;1.30;;;;;;;15.60;76.57;152608.47;10572559;28;20044;-77
2023/08/31 07:36:53;;;;;;;4.25;1.90;;;;;;;15.61;76.00;152612.34;10593263;28;20481;-79
2023/08/31 07:41:55;;;;;;;2.28;1.52;;;;;;;15.81;74.66;152662.97;10590147;28;20048;-78
2023/08/31 07:46:57;;;;;;;2.83;1.40;;;;;;;16.06;74.46;152726.44;10570191;28;20059;-78
2023/08/31 07:51:59;;;;;;;1.45;1.20;;;;;;;16.23;73.48;152769.25;10590205;28;20040;-79
2023/08/31 07:57:01;;;;;;;2.20;1.10;;;;;;;16.38;70.49;152806.88;10571831;28;20075;-78
2023/08/31 08:02:03;;;;;;;2.33;1.20;;;;;;;16.48;70.12;152832.78;10570568;28;20114;-78
2023/08/31 08:07:04;;;;;;;2.83;1.10;;;;;;;16.65;70.01;152876.91;10587952;28;20043;-78
2023/08/31 08:12:07;;;;;;;3.15;1.30;;;;;;;16.75;66.69;152900.28;10592376;28;20042;-78
2023/08/31 08:17:08;;;;;;;2.97;1.13;;;;;;;16.65;65.91;152876.91;10592100;28;20044;-76
2023/08/31 08:22:10;;;;;;;1.95;1.02;;;;;;;16.82;62.80;152919.75;10589111;28;20085;-77
2023/08/31 08:27:12;;;;;;;2.42;1.08;;;;;;;16.85;61.35;152927.50;10586119;28;20433;-77
2023/08/31 08:32:14;;;;;;;3.08;1.15;;;;;;;17.01;62.80;152967.72;10587600;28;20051;-77
2023/08/31 08:37:15;;;;;;;1.70;0.90;;;;;;;17.36;63.06;153057.25;10589223;28;20047;-77
2023/08/31 08:42:19;;;;;;;2.13;0.90;;;;;;;17.61;61.30;153119.50;10587455;28;20043;-78
2023/08/31 08:47:20;;;;;;;4.13;1.30;;;;;;;17.44;62.67;153076.69;10587804;28;20055;-78
2023/08/31 08:52:23;;;;;;;3.25;1.13;;;;;;;17.15;61.17;153002.75;10551535;28;20039;-77
2023/08/31 08:57:24;;;;;;;1.67;0.90;;;;;;;17.17;60.23;153007.91;10585239;28;20089;-78
2023/08/31 09:02:26;;;;;;;2.25;1.13;;;;;;;17.60;58.79;153116.94;10585348;28;20122;-78
2023/08/31 09:07:30;;;;;;;1.25;0.70;;;;;;;17.84;53.71;153177.97;10585974;28;20585;-78
2023/08/31 09:12:36;;;;;;;2.70;1.10;;;;;;;17.79;55.51;153164.97;10583391;28;20044;-76
2023/08/31 09:17:44;;;;;;;1.77;0.90;;;;;;;17.47;56.76;153084.47;10587706;28;20078;-79
2023/08/31 09:22:46;;;;;;;1.00;0.80;;;;;;;17.37;56.48;153059.84;10589254;28;20070;-78
2023/08/31 09:27:48;;;;;;;2.10;1.00;;;;;;;17.29;56.59;153039.06;10586956;28;20104;-78
2023/08/31 09:32:53;;;;;;;1.65;0.95;;;;;;;17.37;58.39;153058.53;10591478;28;20039;-78
2023/08/31 09:37:57;;;;;;;2.45;1.02;;;;;;;18.23;57.54;153276.63;10572161;28;20047;-79
2023/08/31 09:42:59;;;;;;;1.75;0.90;;;;;;;18.09;54.79;153242.88;10572345;28;20119;-78
2023/08/31 09:48:02;;;;;;;1.90;0.95;;;;;;;17.82;56.79;153172.78;10586424;28;20455;-77
2023/08/31 09:53:06;;;;;;;1.85;1.02;;;;;;;17.54;57.22;153101.38;10588758;28;20060;-78
2023/08/31 09:58:09;;;;;;;1.50;1.30;;;;;;;17.70;58.94;153141.56;10597893;28;20052;-78
2023/08/31 10:03:17;;;;;;;2.88;1.08;;;;;;;18.11;56.00;153248.09;10585016;28;20103;-78
2023/08/31 10:08:20;;;;;;;2.38;1.08;;;;;;;18.29;54.13;153292.25;10599842;28;20040;-78
2023/08/31 10:13:22;;;;;;;1.08;0.77;;;;;;;18.81;53.95;153426.00;10604124;28;20069;-80
2023/08/31 10:18:24;;;;;;;1.50;0.80;;;;;;;19.38;48.48;153570.19;10602328;28;20044;-79
2023/08/31 10:23:27;;;;;;;2.08;0.90;;;;;;;19.23;47.85;153532.53;10597352;28;20040;-79
2023/08/31 10:28:29;;;;;;;1.42;0.90;;;;;;;19.06;50.37;153489.66;10579579;28;20043;-78
2023/08/31 10:33:39;;;;;;;0.88;0.70;;;;;;;19.14;46.49;153510.44;10596117;28;20122;-78
2023/08/31 10:38:44;;;;;;;2.50;0.70;;;;;;;19.01;47.11;153475.38;10593354;28;20063;-79
2023/08/31 10:43:59;;;;;;;3.15;0.88;;;;;;;19.20;46.84;153523.44;10592940;28;20055;-78
2023/08/31 10:49:14;;;;;;;2.37;0.90;;;;;;;20.04;49.55;153739.19;10596714;28;20051;-78
2023/08/31 10:54:26;;;;;;;0.85;0.55;;;;;;;20.96;45.49;153972.00;10580151;28;20089;-79
2023/08/31 10:59:42;;;;;;;1.60;0.50;;;;;;;21.45;44.18;154098.25;10597858;28;20036;-81
2023/08/31 11:05:14;;;;;;;1.20;0.85;;;;;;;20.42;44.33;153836.72;10601537;28;20044;-78
2023/08/31 11:10:24;;;;;;;0.75;0.52;;;;;;;19.88;50.25;153698.94;10599108;28;20481;-78
2023/08/31 11:15:30;;;;;;;1.58;0.60;;;;;;;17.50;59.66;153092.28;10597807;28;20205;-81
2023/08/31 11:20:32;;;;;;;0.93;0.40;;;;;;;17.12;61.64;152996.25;10598288;28;20058;-79
2023/08/31 11:25:34;;;;;;;0.80;0.40;;;;;;;16.58;60.91;152857.44;10556584;28;20047;-78
2023/08/31 11:30:36;;;;;;;0.73;0.40;;;;;;;15.99;66.11;152707.03;10598043;28;20456;-80
2023/08/31 11:35:41;;;;;;;1.30;0.40;;;;;;;15.89;64.27;152682.38;10600127;28;20079;-79
2023/08/31 11:40:43;;;;;;;2.17;0.25;;;;;;;15.70;63.80;152634.44;10598147;28;20042;-78
2023/08/31 11:45:45;;;;;;;2.30;0.30;;;;;;;15.60;68.08;152608.47;10594679;28;20050;-77
2023/08/31 11:50:47;;;;;;;1.67;0.50;;;;;;;15.54;72.24;152594.25;10589202;28;20036;-77
2023/08/31 11:55:51;;;;;;;1.23;0.40;;;;;;;15.74;75.14;152643.50;10569019;28;20055;-77
2023/08/31 12:00:59;;;;;;;1.08;0.60;;;;;;;16.23;73.41;152767.97;10568995;28;20489;-78
2023/08/31 12:06:03;;;;;;;3.10;0.75;;;;;;;17.27;71.02;153033.91;10587197;28;20057;-77
2023/08/31 12:11:06;;;;;;;1.45;0.60;;;;;;;18.16;63.62;153259.78;10589066;28;20046;-78
2023/08/31 12:16:12;;;;;;;2.17;0.50;;;;;;;18.31;60.20;153298.69;10577677;28;20071;-78
2023/08/31 12:21:14;;;;;;;0.77;0.63;;;;;;;18.01;61.09;153220.81;10595863;28;20099;-78
2023/08/31 12:26:15;;;;;;;2.08;0.60;;;;;;;18.09;63.23;153242.88;10598581;28;20035;-79
2023/08/31 12:31:17;;;;;;;0.85;0.40;;;;;;;18.85;60.84;153436.38;10577270;28;20454;-79
2023/08/31 12:36:20;;;;;;;0.73;0.35;;;;;;;18.92;57.68;153453.31;10564911;28;20075;-78
2023/08/31 12:41:22;;;;;;;1.48;0.75;;;;;;;19.47;59.26;153593.59;10584735;28;20085;-77
2023/08/31 12:46:26;;;;;;;0.47;0.45;;;;;;;19.27;54.64;153541.66;10576195;28;20484;-79
2023/08/31 12:51:28;;;;;;;0.90;0.68;;;;;;;18.87;50.93;153440.31;10579024;28;20049;-78
2023/08/31 12:56:30;;;;;;;0.52;0.45;;;;;;;18.64;50.84;153383.13;10601387;28;20044;-78
2023/08/31 13:01:33;;;;;;;0.50;0.40;;;;;;;18.33;54.27;153302.63;10602338;28;20104;-78
2023/08/31 13:06:37;;;;;;;1.15;0.70;;;;;;;17.58;64.32;153113.06;10597826;28;20043;-79
2023/08/31 13:11:40;;;;;;;1.27;0.85;;;;;;;17.40;70.34;153067.63;10587901;28;20557;-77
2023/08/31 13:16:42;;;;;;;1.77;0.90;;;;;;;18.02;66.20;153223.44;10568539;28;20069;-78
2023/08/31 13:21:46;;;;;;;0.95;0.80;;;;;;;18.41;65.71;153323.34;10591022;28;20036;-79
2023/08/31 13:26:49;;;;;;;1.48;0.77;;;;;;;18.41;61.61;153323.34;10557174;28;20062;-79
2023/08/31 13:31:51;;;;;;;3.92;0.90;;;;;;;18.55;60.71;153359.75;10579909;28;20043;-78
2023/08/31 13:36:53;;;;;;;1.05;0.55;;;;;;;18.95;57.77;153459.78;10599207;28;20097;-77
2023/08/31 13:41:54;;;;;;;1.42;0.63;;;;;;;18.94;58.65;153458.47;10591267;28;20115;-77
2023/08/31 13:46:56;;;;;;;0.47;0.47;;;;;;;19.01;55.23;153476.69;10591088;28;20458;-77
2023/08/31 13:51:59;;;;;;;0.98;0.60;;;;;;;19.07;50.91;153490.97;10591635;28;20039;-76
2023/08/31 13:57:01;;;;;;;0.93;0.50;;;;;;;18.74;51.97;153407.84;10573164;28;20035;-78
2023/08/31 14:02:04;;;;;;;1.50;0.70;;;;;;;18.51;56.39;153348.06;10571474;28;20035;-77
2023/08/31 14:07:07;;;;;;;0.50;0.50;;;;;;;18.61;54.52;153374.03;10590626;28;20493;-78
2023/08/31 14:12:09;;;;;;;1.23;0.70;;;;;;;18.54;56.25;153355.81;10589846;28;20036;-77
2023/08/31 14:17:11;;;;;;;0.60;0.60;;;;;;;18.61;57.46;153374.03;10589270;28;20093;-77
2023/08/31 14:22:13;;;;;;;1.98;0.75;;;;;;;18.58;59.93;153367.50;10588949;28;20042;-77
2023/08/31 14:27:15;;;;;;;1.13;0.98;;;;;;;18.97;57.54;153465.00;10588633;28;20051;-77
2023/08/31 14:32:16;;;;;;;1.52;0.73;;;;;;;18.89;56.65;153445.50;10589358;28;20111;-77
2023/08/31 14:37:18;;;;;;;1.85;0.80;;;;;;;19.16;55.38;153515.63;10590706;28;20046;-79
2023/08/31 14:42:21;;;;;;;1.83;0.70;;;;;;;19.42;52.31;153581.91;10588216;28;20043;-78
2023/08/31 14:47:22;;;;;;;1.75;0.80;;;;;;;19.46;54.02;153589.69;10572309;28;20043;-77
2023/08/31 14:52:24;;;;;;;0.85;0.60;;;;;;;19.40;55.08;153576.72;10589280;28;20036;-77
2023/08/31 14:57:26;;;;;;;0.55;0.43;;;;;;;19.52;52.43;153606.63;10587860;28;20511;-78
2023/08/31 15:02:28;;;;;;;1.38;0.60;;;;;;;19.68;51.68;153645.63;10588637;28;20047;-77
2023/08/31 15:07:29;;;;;;;0.98;0.50;;;;;;;19.58;52.79;153620.91;10587932;28;20048;-77
2023/08/31 15:12:33;;;;;;;1.42;0.82;;;;;;;19.72;51.04;153657.31;10588906;28;20039;-77
2023/08/31 15:17:35;;;;;;;1.48;0.70;;;;;;;19.56;52.51;153616.97;10588514;28;20054;-76
2023/08/31 15:22:37;;;;;;;1.02;0.60;;;;;;;19.42;51.35;153581.91;10587578;28;20039;-77
2023/08/31 15:27:39;;;;;;;1.25;0.50;;;;;;;19.41;49.24;153579.31;10590853;28;20067;-81
2023/08/31 15:32:41;;;;;;;2.13;0.70;;;;;;;19.39;50.00;153574.13;10588807;28;20044;-78
2023/08/31 15:37:43;;;;;;;0.73;0.63;;;;;;;19.17;51.36;153516.97;10587753;28;20040;-78
2023/08/31 15:42:45;;;;;;;1.15;0.70;;;;;;;18.85;54.12;153435.09;10587459;28;20039;-78
2023/08/31 15:47:46;;;;;;;2.47;1.23;;;;;;;18.83;57.54;153429.91;10585868;28;20044;-75
2023/08/31 15:52:48;;;;;;;1.08;0.57;;;;;;;18.56;57.78;153362.34;10584753;28;20043;-75
2023/08/31 15:57:51;;;;;;;2.22;0.70;;;;;;;18.26;60.32;153285.72;10584320;28;20061;-75
2023/08/31 16:02:54;;;;;;;2.05;0.50;;;;;;;18.10;57.30;153245.44;10584176;28;20396;-76
2023/08/31 16:07:56;;;;;;;1.23;0.52;;;;;;;17.98;58.42;153214.34;10584589;28;20059;-75
2023/08/31 16:12:58;;;;;;;1.48;0.45;;;;;;;17.87;60.13;153187.06;10584303;28;20115;-76
2023/08/31 16:18:00;;;;;;;1.48;0.65;;;;;;;17.57;66.75;153109.13;10583648;28;20161;-76
2023/08/31 16:23:02;;;;;;;1.80;0.70;;;;;;;17.60;61.80;153118.22;10582768;28;20085;-75
2023/08/31 16:28:04;;;;;;;0.90;0.60;;;;;;;17.61;66.28;153119.50;10583223;28;20044;-75
2023/08/31 16:33:06;;;;;;;1.55;1.00;;;;;;;17.90;58.67;153193.56;10564402;28;20131;-75
2023/08/31 16:38:08;;;;;;;1.42;0.73;;;;;;;17.85;59.82;153180.59;10582617;28;20039;-76
2023/08/31 16:43:10;;;;;;;1.85;0.85;;;;;;;17.89;59.04;153192.28;10583043;28;20500;-75
2023/08/31 16:48:12;;;;;;;1.00;0.55;;;;;;;17.80;58.61;153167.63;10565264;28;20604;-75
2023/08/31 16:53:14;;;;;;;0.60;0.60;;;;;;;17.61;60.96;153120.81;10564763;28;20386;-76
2023/08/31 16:58:17;;;;;;;1.05;0.70;;;;;;;17.55;61.46;153103.97;10566266;28;20044;-75
2023/08/31 17:03:20;;;;;;;1.20;0.80;;;;;;;16.56;74.65;152853.56;10565453;28;20405;-75
2023/08/31 17:08:22;;;;;;;1.42;0.77;;;;;;;15.31;82.03;152535.88;10590182;28;20043;-75
2023/08/31 17:13:24;;;;;;;0.52;0.38;;;;;;;15.16;82.71;152497.03;10594868;28;20088;-75
2023/08/31 17:18:26;;;;;;;1.75;0.50;;;;;;;15.18;83.06;152500.91;10593186;28;20047;-75
2023/08/31 17:23:28;;;;;;;0.93;0.60;;;;;;;15.05;84.55;152469.84;10593685;28;20564;-76
2023/08/31 17:28:30;;;;;;;1.00;0.60;;;;;;;14.88;88.35;152427.09;10592270;28;20062;-73
2023/08/31 17:33:32;;;;;;;1.60;0.60;;;;;;;14.64;91.47;152366.19;10590386;28;20032;-73
2023/08/31 17:38:36;;;;;;;1.50;0.80;;;;;;;14.53;89.76;152337.72;10590064;28;20044;-73
2023/08/31 17:43:38;;;;;;;1.17;0.60;;;;;;;14.31;91.48;152282.00;10590790;28;20481;-72
2023/08/31 17:48:40;;;;;;;1.35;0.77;;;;;;;14.35;92.35;152292.38;10589772;28;20493;-72
2023/08/31 17:53:42;;;;;;;2.20;1.00;;;;;;;13.98;98.56;152197.84;10590470;28;20042;-73
2023/08/31 17:58:44;;;;;;;0.85;0.73;;;;;;;13.71;100.00;152127.94;10590462;28;20520;-75
2023/08/31 18:03:46;;;;;;;1.30;0.98;;;;;;;13.56;100.00;152090.44;10589936;28;20547;-75
2023/08/31 18:08:48;;;;;;;1.38;0.85;;;;;;;13.64;100.00;152111.16;10590408;28;20039;-73
2023/08/31 18:13:50;;;;;;;2.40;1.15;;;;;;;13.61;100.00;152104.66;10588541;28;20099;-73
2023/08/31 18:18:53;;;;;;;2.28;1.20;;;;;;;13.84;100.00;152161.59;10569313;28;20036;-73
2023/08/31 18:23:55;;;;;;;1.67;0.90;;;;;;;13.86;99.29;152168.09;10588923;28;20043;-74
2023/08/31 18:28:57;;;;;;;1.25;1.15;;;;;;;13.72;100.00;152130.53;10570729;28;20089;-72
2023/08/31 18:34:00;;;;;;;1.60;1.00;;;;;;;13.54;100.00;152086.53;10588842;28;20044;-73
2023/08/31 18:39:06;;;;;;;1.60;1.20;;;;;;;13.24;100.00;152008.94;10588756;28;20063;-73
2023/08/31 18:44:08;;;;;;;1.90;1.50;;;;;;;12.93;100.00;151931.28;10588434;28;20047;-73
2023/08/31 18:49:10;;;;;;;2.67;1.40;;;;;;;12.74;100.00;151883.38;10588244;28;20443;-73
2023/08/31 18:54:12;;;;;;;2.45;1.42;;;;;;;12.71;100.00;151875.66;10587992;28;20458;-74
2023/08/31 18:59:14;;;;;;;2.33;1.50;;;;;;;12.73;100.00;151880.81;10587751;28;20049;-73
2023/08/31 19:04:15;;;;;;;2.60;1.52;;;;;;;12.81;100.00;151900.22;10588640;28;20154;-73
2023/08/31 19:09:17;;;;;;;3.38;1.73;;;;;;;12.69;100.00;151869.16;10588244;28;20489;-73
2023/08/31 19:14:21;;;;;;;2.60;1.50;;;;;;;12.59;100.00;151844.59;10569209;28;20040;-73
2023/08/31 19:19:23;;;;;;;2.13;1.60;;;;;;;12.68;100.00;151867.88;10587771;28;20059;-73
2023/08/31 19:24:25;;;;;;;2.65;1.50;;;;;;;12.82;100.00;151904.06;10592802;28;20044;-77
2023/08/31 19:29:26;;;;;;;2.00;1.42;;;;;;;12.98;100.00;151944.19;10598397;28;20070;-79
2023/08/31 19:34:32;;;;;;;2.38;1.40;;;;;;;12.98;100.00;151942.91;10576623;28;20137;-78
2023/08/31 19:39:34;;;;;;;1.40;1.20;;;;;;;13.14;100.00;151984.28;10590833;28;20062;-77
2023/08/31 19:44:36;;;;;;;2.08;1.45;;;;;;;13.28;98.57;152020.59;10587677;28;20166;-78
2023/08/31 19:49:37;;;;;;;1.55;1.05;;;;;;;13.32;97.20;152029.59;10574165;28;20055;-78
2023/08/31 19:54:39;;;;;;;2.55;1.13;;;;;;;13.44;94.42;152059.38;10568938;28;20135;-77
2023/08/31 19:59:41;;;;;;;2.55;1.40;;;;;;;13.20;98.89;151999.81;10592283;28;20067;-80
2023/08/31 20:04:43;;;;;;;1.80;1.10;;;;;;;13.30;95.06;152024.44;10595194;28;20539;-78
2023/08/31 20:09:44;;;;;;;2.15;1.05;;;;;;;13.28;97.17;152020.59;10601851;28;20573;-82
2023/08/31 20:14:46;;;;;;;1.80;1.30;;;;;;;13.38;96.02;152045.16;10606513;28;20447;-82
2023/08/31 20:19:49;;;;;;;2.03;1.20;;;;;;;13.30;95.88;152024.44;10603081;28;20507;-81
2023/08/31 20:24:51;;;;;;;1.38;1.10;;;;;;;13.19;99.67;151997.19;10591643;28;20051;-82
2023/08/31 20:29:53;;;;;;;1.45;1.20;;;;;;;13.06;100.00;151964.91;10586764;28;20085;-82
2023/08/31 20:34:55;;;;;;;2.63;1.42;;;;;;;13.13;100.00;151981.69;10570184;28;20466;-83
2023/08/31 20:39:57;;;;;;;1.20;1.10;;;;;;;13.01;100.00;151951.91;10604794;28;20061;-81
2023/08/31 20:45:00;;;;;;;2.60;1.20;;;;;;;13.33;99.54;152032.22;10604754;28;20045;-82
2023/08/31 20:50:05;;;;;;;2.05;1.27;;;;;;;12.97;100.00;151941.63;10603471;28;20048;-79
2023/08/31 20:55:08;;;;;;;1.95;1.20;;;;;;;12.94;100.00;151932.56;10604424;28;20043;-80
2023/08/31 21:00:11;;;;;;;1.30;1.10;;;;;;;13.06;100.00;151963.63;10602230;28;20199;-82
2023/08/31 21:05:13;;;;;;;1.30;0.95;;;;;;;13.16;99.20;151988.19;10586713;28;20046;-82
2023/08/31 21:10:15;;;;;;;1.33;0.90;;;;;;;13.11;97.77;151977.84;10604013;28;20071;-84
2023/08/31 21:15:17;;;;;;;1.88;0.88;;;;;;;13.06;100.00;151964.91;10582376;28;20039;-81
2023/08/31 21:20:19;;;;;;;1.75;1.05;;;;;;;13.16;100.00;151988.19;10600364;28;20481;-81
2023/08/31 21:25:21;;;;;;;1.58;1.10;;;;;;;13.18;99.71;151993.34;10600632;28;20140;-82
2023/08/31 21:30:23;;;;;;;1.75;0.80;;;;;;;13.43;94.92;152056.78;10564965;28;20040;-82
2023/08/31 21:35:25;;;;;;;0.63;0.50;;;;;;;13.49;94.17;152073.59;10582946;28;20063;-82
2023/08/31 21:40:27;;;;;;;1.35;1.25;;;;;;;13.66;93.53;152115.03;10600203;28;20089;-81
2023/08/31 21:45:30;;;;;;;1.50;1.05;;;;;;;13.50;97.78;152074.88;10582879;28;20050;-81
2023/08/31 21:50:33;;;;;;;1.10;0.90;;;;;;;13.44;96.02;152060.66;10600058;28;20043;-80
2023/08/31 21:55:36;;;;;;;2.45;1.10;;;;;;;13.27;99.36;152017.97;10608438;28;20067;-82
2023/08/31 22:00:38;;;;;;;1.08;0.90;;;;;;;13.33;100.00;152032.22;10607211;28;20048;-82
2023/08/31 22:05:41;;;;;;;2.00;0.80;;;;;;;13.41;99.01;152052.88;10607966;28;20132;-82
2023/08/31 22:10:43;;;;;;;1.55;1.00;;;;;;;13.50;95.84;152076.22;10572778;28;20047;-83
2023/08/31 22:15:51;;;;;;;2.65;0.73;;;;;;;13.46;94.40;152064.53;10608401;28;20047;-82
2023/08/31 22:20:53;;;;;;;1.35;0.80;;;;;;;13.46;92.98;152065.88;10607992;28;20063;-81
2023/08/31 22:25:55;;;;;;;0.80;0.65;;;;;;;13.43;93.71;152056.78;10589643;28;20516;-81
2023/08/31 22:30:57;;;;;;;1.55;0.60;;;;;;;13.46;93.39;152064.53;10607158;28;20062;-80
2023/08/31 22:36:03;;;;;;;1.42;0.77;;;;;;;13.25;96.83;152011.50;10607881;28;20044;-82
2023/08/31 22:41:06;;;;;;;2.13;0.68;;;;;;;13.33;93.94;152033.50;10606895;28;20036;-80
2023/08/31 22:46:09;;;;;;;1.63;0.70;;;;;;;13.26;96.78;152015.38;10588834;28;20039;-79
2023/08/31 22:51:11;;;;;;;0.85;0.60;;;;;;;13.20;95.49;151998.53;10606964;28;20048;-81
2023/08/31 22:56:13;;;;;;;0.80;0.57;;;;;;;13.13;97.50;151982.97;10607305;28;20566;-81
2023/08/31 23:01:17;;;;;;;0.73;0.60;;;;;;;12.91;100.00;151926.06;10607147;28;20036;-81
2023/08/31 23:06:19;;;;;;;1.17;0.68;;;;;;;12.69;100.00;151870.44;10606340;28;20061;-80
2023/08/31 23:11:22;;;;;;;2.63;1.10;;;;;;;12.49;100.00;151820.03;10606676;28;20047;-81